KQBF/QBF METAR and TAF weather

Enter ICAO airport designator
Station Type Date Time Source
KQBF METAR 2019/06/16 11:56 UTC NOAA

KQBF 161156Z AUTO 28005KT 9999 FEW170 34/21 A2996 RMK AO2 SLP100 WND DATA ESTMD T03440214 10344 20271 58009


Station Type Date Time Source
KQBF Decoded METAR 2019/06/16 11:56 UTC NOAA

Station name not available
Jun 16, 2019 - 07:56 AM EDT / 2019.06.16 1156 UTC
Wind: from the W (280 degrees) at 6 MPH (5 KT):0
Visibility: greater than 7 mile(s):0
Sky conditions: mostly clear
Temperature: 93.9 F (34.4 C)
Heat index: 100.2 F (37.9 C):1
Dew Point: 70.5 F (21.4 C)
Relative Humidity: 46%
Pressure (altimeter): 29.96 in. Hg (1014 hPa)
Pressure tendency: 0.03 inches (0.9 hPa) lower than three hours ago
ob: KQBF 161156Z AUTO 28005KT 9999 FEW170 34/21 A2996 RMK AO2 SLP100 WND DATA ESTMD T03440214 10344 20271 58009
cycle: 12

Station Type Date Time Source
KQBF TAF 2009/08/24 17:21 UTC NOAA

TAF
AMD KQBF 241721Z 241313 06010G20KT 9999 FEW025 SCT160 BKN230 QNH2915INS
BECMG 2223 100020G25KT 9000 -SHRA SCT009 BKN025 OVC035 610505 QNH2910INS
TEMPO 0209 10025G35KT BKN010
BECMG 1213 09020G25KT 9000 -SHRA SCT015 BKN035 OVC050 610606 T11/15Z T10/00Z
AMD 241744 LIMITED METWATCH 2417 TIL 2507

Example: see airport list